sensor_id;sensor_type;location;lat;lon;timestamp;P1;P2;P0
44674;PMS5003;30388;52.038;-1.478;2022-12-24T00:01:16;40;39;
44674;PMS5003;30388;52.038;-1.478;2022-12-24T00:03:44;29;29;
44674;PMS5003;30388;52.038;-1.478;2022-12-24T00:06:12;30;30;
44674;PMS5003;30388;52.038;-1.478;2022-12-24T00:08:42;9;8;
44674;PMS5003;30388;52.038;-1.478;2022-12-24T00:11:09;59;59;
44674;PMS5003;30388;52.038;-1.478;2022-12-24T00:13:36;34;32;
44674;PMS5003;30388;52.038;-1.478;2022-12-24T00:16:04;48;48;
44674;PMS5003;30388;52.038;-1.478;2022-12-24T00:18:37;32;30;
44674;PMS5003;30388;52.038;-1.478;2022-12-24T00:21:04;33;33;
44674;PMS5003;30388;52.038;-1.478;2022-12-24T00:23:32;38;38;
44674;PMS5003;30388;52.038;-1.478;2022-12-24T00:25:59;51;51;
44674;PMS5003;30388;52.038;-1.478;2022-12-24T00:28:27;46;46;
44674;PMS5003;30388;52.038;-1.478;2022-12-24T00:30:59;30;30;
44674;PMS5003;30388;52.038;-1.478;2022-12-24T00:33:33;41;40;
44674;PMS5003;30388;52.038;-1.478;2022-12-24T00:36:01;26;26;
44674;PMS5003;30388;52.038;-1.478;2022-12-24T00:38:28;8;7;
44674;PMS5003;30388;52.038;-1.478;2022-12-24T00:40:57;26;26;
44674;PMS5003;30388;52.038;-1.478;2022-12-24T00:43:25;13;13;
44674;PMS5003;30388;52.038;-1.478;2022-12-24T00:45:52;43;41;
44674;PMS5003;30388;52.038;-1.478;2022-12-24T00:48:19;14;14;
44674;PMS5003;30388;52.038;-1.478;2022-12-24T00:50:46;15;15;
44674;PMS5003;30388;52.038;-1.478;2022-12-24T00:53:13;33;33;
44674;PMS5003;30388;52.038;-1.478;2022-12-24T00:55:41;33;33;
44674;PMS5003;30388;52.038;-1.478;2022-12-24T00:58:08;35;35;
44674;PMS5003;30388;52.038;-1.478;2022-12-24T01:00:35;60;58;
44674;PMS5003;30388;52.038;-1.478;2022-12-24T01:03:03;21;21;
44674;PMS5003;30388;52.038;-1.478;2022-12-24T01:05:30;90;90;
44674;PMS5003;30388;52.038;-1.478;2022-12-24T01:07:58;34;34;
44674;PMS5003;30388;52.038;-1.478;2022-12-24T01:10:24;59;58;
44674;PMS5003;30388;52.038;-1.478;2022-12-24T01:12:52;35;35;
44674;PMS5003;30388;52.038;-1.478;2022-12-24T01:15:19;46;46;
44674;PMS5003;30388;52.038;-1.478;2022-12-24T01:17:46;35;35;
44674;PMS5003;30388;52.038;-1.478;2022-12-24T01:20:15;79;79;
44674;PMS5003;30388;52.038;-1.478;2022-12-24T01:22:43;24;24;
44674;PMS5003;30388;52.038;-1.478;2022-12-24T01:25:10;44;43;
44674;PMS5003;30388;52.038;-1.478;2022-12-24T01:27:38;49;49;
44674;PMS5003;30388;52.038;-1.478;2022-12-24T01:30:06;54;49;
44674;PMS5003;30388;52.038;-1.478;2022-12-24T01:32:34;30;30;
44674;PMS5003;30388;52.038;-1.478;2022-12-24T01:35:01;35;35;
44674;PMS5003;30388;52.038;-1.478;2022-12-24T01:37:28;58;58;
44674;PMS5003;30388;52.038;-1.478;2022-12-24T01:39:56;48;48;
44674;PMS5003;30388;52.038;-1.478;2022-12-24T01:42:23;28;27;
44674;PMS5003;30388;52.038;-1.478;2022-12-24T01:44:50;54;53;
44674;PMS5003;30388;52.038;-1.478;2022-12-24T01:47:19;64;64;
44674;PMS5003;30388;52.038;-1.478;2022-12-24T01:49:51;45;40;
44674;PMS5003;30388;52.038;-1.478;2022-12-24T01:52:22;25;25;
44674;PMS5003;30388;52.038;-1.478;2022-12-24T01:54:54;23;23;
44674;PMS5003;30388;52.038;-1.478;2022-12-24T01:57:26;40;39;
44674;PMS5003;30388;52.038;-1.478;2022-12-24T01:59:57;58;58;
44674;PMS5003;30388;52.038;-1.478;2022-12-24T02:02:28;29;29;
44674;PMS5003;30388;52.038;-1.478;2022-12-24T02:04:56;66;65;
44674;PMS5003;30388;52.038;-1.478;2022-12-24T02:07:28;11;11;
44674;PMS5003;30388;52.038;-1.478;2022-12-24T02:09:57;47;47;
44674;PMS5003;30388;52.038;-1.478;2022-12-24T02:12:26;75;74;
44674;PMS5003;30388;52.038;-1.478;2022-12-24T02:14:55;118;118;
44674;PMS5003;30388;52.038;-1.478;2022-12-24T02:17:24;128;128;
44674;PMS5003;30388;52.038;-1.478;2022-12-24T02:20:02;133;129;
44674;PMS5003;30388;52.038;-1.478;2022-12-24T02:22:46;76;76;
44674;PMS5003;30388;52.038;-1.478;2022-12-24T02:25:37;67;66;
44674;PMS5003;30388;52.038;-1.478;2022-12-24T02:28:20;42;41;
44674;PMS5003;30388;52.038;-1.478;2022-12-24T02:30:59;20;20;
44674;PMS5003;30388;52.038;-1.478;2022-12-24T02:33:31;22;21;
44674;PMS5003;30388;52.038;-1.478;2022-12-24T02:36:08;73;73;
44674;PMS5003;30388;52.038;-1.478;2022-12-24T02:38:44;79;79;
44674;PMS5003;30388;52.038;-1.478;2022-12-24T02:41:18;99;99;
44674;PMS5003;30388;52.038;-1.478;2022-12-24T02:43:50;96;95;
44674;PMS5003;30388;52.038;-1.478;2022-12-24T02:46:21;40;40;
44674;PMS5003;30388;52.038;-1.478;2022-12-24T02:48:51;56;55;
44674;PMS5003;30388;52.038;-1.478;2022-12-24T02:51:21;107;107;
44674;PMS5003;30388;52.038;-1.478;2022-12-24T02:53:49;146;146;
44674;PMS5003;30388;52.038;-1.478;2022-12-24T02:56:20;126;126;
44674;PMS5003;30388;52.038;-1.478;2022-12-24T02:59:03;132;132;
44674;PMS5003;30388;52.038;-1.478;2022-12-24T03:01:45;131;127;
44674;PMS5003;30388;52.038;-1.478;2022-12-24T03:04:21;113;113;
44674;PMS5003;30388;52.038;-1.478;2022-12-24T03:06:56;105;105;
44674;PMS5003;30388;52.038;-1.478;2022-12-24T03:09:32;131;129;
44674;PMS5003;30388;52.038;-1.478;2022-12-24T03:12:06;148;148;
44674;PMS5003;30388;52.038;-1.478;2022-12-24T03:14:38;154;154;
44674;PMS5003;30388;52.038;-1.478;2022-12-24T03:17:07;123;121;
44674;PMS5003;30388;52.038;-1.478;2022-12-24T03:19:35;137;137;
44674;PMS5003;30388;52.038;-1.478;2022-12-24T03:22:04;136;135;
44674;PMS5003;30388;52.038;-1.478;2022-12-24T03:24:35;137;134;
44674;PMS5003;30388;52.038;-1.478;2022-12-24T03:27:02;147;147;
44674;PMS5003;30388;52.038;-1.478;2022-12-24T03:29:31;138;138;
44674;PMS5003;30388;52.038;-1.478;2022-12-24T03:32:00;139;139;
44674;PMS5003;30388;52.038;-1.478;2022-12-24T03:34:29;147;147;
44674;PMS5003;30388;52.038;-1.478;2022-12-24T03:36:57;113;113;
44674;PMS5003;30388;52.038;-1.478;2022-12-24T03:39:25;142;137;
44674;PMS5003;30388;52.038;-1.478;2022-12-24T03:41:52;114;114;
44674;PMS5003;30388;52.038;-1.478;2022-12-24T03:44:19;107;107;
44674;PMS5003;30388;52.038;-1.478;2022-12-24T03:46:46;74;74;
44674;PMS5003;30388;52.038;-1.478;2022-12-24T03:49:13;80;80;
44674;PMS5003;30388;52.038;-1.478;2022-12-24T03:51:40;63;60;
44674;PMS5003;30388;52.038;-1.478;2022-12-24T03:54:08;69;69;
44674;PMS5003;30388;52.038;-1.478;2022-12-24T03:56:35;56;56;
44674;PMS5003;30388;52.038;-1.478;2022-12-24T03:59:02;48;48;
44674;PMS5003;30388;52.038;-1.478;2022-12-24T04:01:29;56;56;
44674;PMS5003;30388;52.038;-1.478;2022-12-24T04:03:56;58;56;
44674;PMS5003;30388;52.038;-1.478;2022-12-24T04:06:23;57;57;
44674;PMS5003;30388;52.038;-1.478;2022-12-24T04:08:50;95;92;
44674;PMS5003;30388;52.038;-1.478;2022-12-24T04:11:17;56;56;
44674;PMS5003;30388;52.038;-1.478;2022-12-24T04:13:44;62;62;
44674;PMS5003;30388;52.038;-1.478;2022-12-24T04:16:13;68;66;
44674;PMS5003;30388;52.038;-1.478;2022-12-24T04:18:41;66;66;
44674;PMS5003;30388;52.038;-1.478;2022-12-24T04:21:09;92;92;
44674;PMS5003;30388;52.038;-1.478;2022-12-24T04:23:37;107;106;
44674;PMS5003;30388;52.038;-1.478;2022-12-24T04:26:06;99;99;
44674;PMS5003;30388;52.038;-1.478;2022-12-24T04:28:35;80;80;
44674;PMS5003;30388;52.038;-1.478;2022-12-24T04:31:04;116;115;
44674;PMS5003;30388;52.038;-1.478;2022-12-24T04:33:33;81;79;
44674;PMS5003;30388;52.038;-1.478;2022-12-24T04:36:01;110;110;
44674;PMS5003;30388;52.038;-1.478;2022-12-24T04:38:30;78;76;
44674;PMS5003;30388;52.038;-1.478;2022-12-24T04:40:58;81;81;
44674;PMS5003;30388;52.038;-1.478;2022-12-24T04:43:26;44;43;
44674;PMS5003;30388;52.038;-1.478;2022-12-24T04:45:53;37;37;
44674;PMS5003;30388;52.038;-1.478;2022-12-24T04:48:21;55;54;
44674;PMS5003;30388;52.038;-1.478;2022-12-24T04:50:48;18;18;
44674;PMS5003;30388;52.038;-1.478;2022-12-24T04:53:16;28;28;
44674;PMS5003;30388;52.038;-1.478;2022-12-24T04:55:44;21;21;
44674;PMS5003;30388;52.038;-1.478;2022-12-24T04:58:11;16;16;
44674;PMS5003;30388;52.038;-1.478;2022-12-24T05:00:39;26;26;
44674;PMS5003;30388;52.038;-1.478;2022-12-24T05:03:07;15;15;
44674;PMS5003;30388;52.038;-1.478;2022-12-24T05:05:34;5;5;
44674;PMS5003;30388;52.038;-1.478;2022-12-24T05:08:01;15;15;
44674;PMS5003;30388;52.038;-1.478;2022-12-24T05:10:29;8;8;
44674;PMS5003;30388;52.038;-1.478;2022-12-24T05:12:56;54;54;
44674;PMS5003;30388;52.038;-1.478;2022-12-24T05:15:24;7;5;
44674;PMS5003;30388;52.038;-1.478;2022-12-24T05:17:52;11;8;
44674;PMS5003;30388;52.038;-1.478;2022-12-24T05:20:19;8;8;
44674;PMS5003;30388;52.038;-1.478;2022-12-24T05:22:46;8;8;
44674;PMS5003;30388;52.038;-1.478;2022-12-24T05:25:14;18;18;
44674;PMS5003;30388;52.038;-1.478;2022-12-24T05:27:41;11;11;
44674;PMS5003;30388;52.038;-1.478;2022-12-24T05:30:09;7;7;
44674;PMS5003;30388;52.038;-1.478;2022-12-24T05:32:36;23;23;
44674;PMS5003;30388;52.038;-1.478;2022-12-24T05:35:03;50;50;
44674;PMS5003;30388;52.038;-1.478;2022-12-24T05:37:30;7;7;
44674;PMS5003;30388;52.038;-1.478;2022-12-24T05:39:58;17;17;
44674;PMS5003;30388;52.038;-1.478;2022-12-24T05:42:25;13;11;
44674;PMS5003;30388;52.038;-1.478;2022-12-24T05:44:53;5;5;
44674;PMS5003;30388;52.038;-1.478;2022-12-24T05:47:20;21;21;
44674;PMS5003;30388;52.038;-1.478;2022-12-24T05:49:47;20;20;
44674;PMS5003;30388;52.038;-1.478;2022-12-24T05:52:14;28;28;
44674;PMS5003;30388;52.038;-1.478;2022-12-24T05:54:42;64;63;
44674;PMS5003;30388;52.038;-1.478;2022-12-24T05:57:09;70;70;
44674;PMS5003;30388;52.038;-1.478;2022-12-24T05:59:36;100;100;
44674;PMS5003;30388;52.038;-1.478;2022-12-24T06:02:03;106;106;
44674;PMS5003;30388;52.038;-1.478;2022-12-24T06:04:30;151;148;
44674;PMS5003;30388;52.038;-1.478;2022-12-24T06:06:58;139;139;
44674;PMS5003;30388;52.038;-1.478;2022-12-24T06:09:25;163;162;
44674;PMS5003;30388;52.038;-1.478;2022-12-24T06:11:52;194;193;
44674;PMS5003;30388;52.038;-1.478;2022-12-24T06:14:20;175;175;
44674;PMS5003;30388;52.038;-1.478;2022-12-24T06:16:47;174;173;
44674;PMS5003;30388;52.038;-1.478;2022-12-24T06:19:14;182;182;
44674;PMS5003;30388;52.038;-1.478;2022-12-24T06:21:41;179;177;
44674;PMS5003;30388;52.038;-1.478;2022-12-24T06:24:08;212;212;
44674;PMS5003;30388;52.038;-1.478;2022-12-24T06:26:36;193;193;
44674;PMS5003;30388;52.038;-1.478;2022-12-24T06:29:03;220;220;
44674;PMS5003;30388;52.038;-1.478;2022-12-24T06:31:31;172;172;
44674;PMS5003;30388;52.038;-1.478;2022-12-24T06:33:58;172;172;
44674;PMS5003;30388;52.038;-1.478;2022-12-24T06:36:25;116;116;
44674;PMS5003;30388;52.038;-1.478;2022-12-24T06:38:53;128;128;
44674;PMS5003;30388;52.038;-1.478;2022-12-24T06:41:20;107;107;
44674;PMS5003;30388;52.038;-1.478;2022-12-24T06:43:48;49;49;
44674;PMS5003;30388;52.038;-1.478;2022-12-24T06:46:16;27;27;
44674;PMS5003;30388;52.038;-1.478;2022-12-24T06:48:44;26;26;
44674;PMS5003;30388;52.038;-1.478;2022-12-24T06:51:13;20;20;
44674;PMS5003;30388;52.038;-1.478;2022-12-24T06:53:42;25;25;
44674;PMS5003;30388;52.038;-1.478;2022-12-24T06:56:10;14;14;
44674;PMS5003;30388;52.038;-1.478;2022-12-24T06:58:39;19;19;
44674;PMS5003;30388;52.038;-1.478;2022-12-24T07:01:07;8;8;
44674;PMS5003;30388;52.038;-1.478;2022-12-24T07:03:36;10;10;
44674;PMS5003;30388;52.038;-1.478;2022-12-24T07:06:03;68;68;
44674;PMS5003;30388;52.038;-1.478;2022-12-24T07:08:31;24;23;
44674;PMS5003;30388;52.038;-1.478;2022-12-24T07:10:59;24;24;
44674;PMS5003;30388;52.038;-1.478;2022-12-24T07:13:26;18;17;
44674;PMS5003;30388;52.038;-1.478;2022-12-24T07:15:57;124;122;
44674;PMS5003;30388;52.038;-1.478;2022-12-24T07:18:25;41;41;
44674;PMS5003;30388;52.038;-1.478;2022-12-24T07:20:53;46;46;
44674;PMS5003;30388;52.038;-1.478;2022-12-24T07:23:20;56;56;
44674;PMS5003;30388;52.038;-1.478;2022-12-24T07:25:48;104;104;
44674;PMS5003;30388;52.038;-1.478;2022-12-24T07:28:15;123;122;
44674;PMS5003;30388;52.038;-1.478;2022-12-24T07:30:42;33;33;
44674;PMS5003;30388;52.038;-1.478;2022-12-24T07:33:09;34;34;
44674;PMS5003;30388;52.038;-1.478;2022-12-24T07:35:36;12;11;
44674;PMS5003;30388;52.038;-1.478;2022-12-24T07:38:04;5;5;
44674;PMS5003;30388;52.038;-1.478;2022-12-24T07:40:32;3;1;
44674;PMS5003;30388;52.038;-1.478;2022-12-24T07:42:59;2;1;
44674;PMS5003;30388;52.038;-1.478;2022-12-24T07:45:26;1;1;
44674;PMS5003;30388;52.038;-1.478;2022-12-24T07:47:54;2;0;
44674;PMS5003;30388;52.038;-1.478;2022-12-24T07:50:21;0;0;
44674;PMS5003;30388;52.038;-1.478;2022-12-24T07:52:48;3;2;
44674;PMS5003;30388;52.038;-1.478;2022-12-24T07:55:15;1;0;
44674;PMS5003;30388;52.038;-1.478;2022-12-24T07:57:42;1;1;
44674;PMS5003;30388;52.038;-1.478;2022-12-24T08:00:10;2;2;
44674;PMS5003;30388;52.038;-1.478;2022-12-24T08:02:38;1;1;
44674;PMS5003;30388;52.038;-1.478;2022-12-24T08:05:05;4;3;
44674;PMS5003;30388;52.038;-1.478;2022-12-24T08:07:33;1;1;
44674;PMS5003;30388;52.038;-1.478;2022-12-24T08:10:00;2;2;
44674;PMS5003;30388;52.038;-1.478;2022-12-24T08:12:27;0;0;
44674;PMS5003;30388;52.038;-1.478;2022-12-24T08:14:54;2;2;
44674;PMS5003;30388;52.038;-1.478;2022-12-24T08:17:21;2;2;
44674;PMS5003;30388;52.038;-1.478;2022-12-24T08:19:49;3;3;
44674;PMS5003;30388;52.038;-1.478;2022-12-24T08:22:16;6;6;
44674;PMS5003;30388;52.038;-1.478;2022-12-24T08:24:43;2;2;
44674;PMS5003;30388;52.038;-1.478;2022-12-24T08:27:11;3;3;
44674;PMS5003;30388;52.038;-1.478;2022-12-24T08:29:38;3;3;
44674;PMS5003;30388;52.038;-1.478;2022-12-24T08:32:05;7;7;
44674;PMS5003;30388;52.038;-1.478;2022-12-24T08:34:32;15;15;
44674;PMS5003;30388;52.038;-1.478;2022-12-24T08:36:59;9;4;
44674;PMS5003;30388;52.038;-1.478;2022-12-24T08:39:27;3;2;
44674;PMS5003;30388;52.038;-1.478;2022-12-24T08:41:54;5;4;
44674;PMS5003;30388;52.038;-1.478;2022-12-24T08:44:21;6;6;
44674;PMS5003;30388;52.038;-1.478;2022-12-24T08:46:48;11;10;
44674;PMS5003;30388;52.038;-1.478;2022-12-24T08:49:15;11;11;
44674;PMS5003;30388;52.038;-1.478;2022-12-24T08:51:42;3;2;
44674;PMS5003;30388;52.038;-1.478;2022-12-24T08:54:09;2;2;
44674;PMS5003;30388;52.038;-1.478;2022-12-24T08:56:37;1;1;
44674;PMS5003;30388;52.038;-1.478;2022-12-24T08:59:04;1;0;
44674;PMS5003;30388;52.038;-1.478;2022-12-24T09:01:31;2;1;
44674;PMS5003;30388;52.038;-1.478;2022-12-24T09:04:00;1;0;
44674;PMS5003;30388;52.038;-1.478;2022-12-24T09:06:27;0;0;
44674;PMS5003;30388;52.038;-1.478;2022-12-24T09:08:54;5;4;
44674;PMS5003;30388;52.038;-1.478;2022-12-24T09:11:23;0;0;
44674;PMS5003;30388;52.038;-1.478;2022-12-24T09:13:50;0;0;
44674;PMS5003;30388;52.038;-1.478;2022-12-24T09:16:17;0;0;
44674;PMS5003;30388;52.038;-1.478;2022-12-24T09:18:44;2;1;
44674;PMS5003;30388;52.038;-1.478;2022-12-24T09:21:12;0;0;
44674;PMS5003;30388;52.038;-1.478;2022-12-24T09:23:41;0;0;
44674;PMS5003;30388;52.038;-1.478;2022-12-24T09:26:12;1;0;
44674;PMS5003;30388;52.038;-1.478;2022-12-24T09:28:45;0;0;
44674;PMS5003;30388;52.038;-1.478;2022-12-24T09:31:14;2;2;
44674;PMS5003;30388;52.038;-1.478;2022-12-24T09:33:42;1;1;
44674;PMS5003;30388;52.038;-1.478;2022-12-24T09:36:11;1;1;
44674;PMS5003;30388;52.038;-1.478;2022-12-24T09:38:38;3;1;
44674;PMS5003;30388;52.038;-1.478;2022-12-24T09:41:10;5;5;
44674;PMS5003;30388;52.038;-1.478;2022-12-24T09:43:43;0;0;
44674;PMS5003;30388;52.038;-1.478;2022-12-24T09:46:15;3;2;
44674;PMS5003;30388;52.038;-1.478;2022-12-24T09:48:48;2;0;
44674;PMS5003;30388;52.038;-1.478;2022-12-24T09:51:20;2;2;
44674;PMS5003;30388;52.038;-1.478;2022-12-24T09:53:55;15;15;
44674;PMS5003;30388;52.038;-1.478;2022-12-24T09:56:26;42;39;
44674;PMS5003;30388;52.038;-1.478;2022-12-24T09:58:56;12;12;
44674;PMS5003;30388;52.038;-1.478;2022-12-24T10:01:27;10;9;
44674;PMS5003;30388;52.038;-1.478;2022-12-24T10:03:56;12;11;
44674;PMS5003;30388;52.038;-1.478;2022-12-24T10:06:28;9;9;
44674;PMS5003;30388;52.038;-1.478;2022-12-24T10:09:02;7;6;
44674;PMS5003;30388;52.038;-1.478;2022-12-24T10:11:41;42;39;
44674;PMS5003;30388;52.038;-1.478;2022-12-24T10:14:17;127;126;
44674;PMS5003;30388;52.038;-1.478;2022-12-24T10:16:53;189;189;
44674;PMS5003;30388;52.038;-1.478;2022-12-24T10:19:35;151;151;
44674;PMS5003;30388;52.038;-1.478;2022-12-24T10:22:11;147;147;
44674;PMS5003;30388;52.038;-1.478;2022-12-24T10:24:46;156;155;
44674;PMS5003;30388;52.038;-1.478;2022-12-24T10:27:20;185;185;
44674;PMS5003;30388;52.038;-1.478;2022-12-24T10:29:55;211;211;
44674;PMS5003;30388;52.038;-1.478;2022-12-24T10:32:27;208;206;
44674;PMS5003;30388;52.038;-1.478;2022-12-24T10:34:58;192;192;
44674;PMS5003;30388;52.038;-1.478;2022-12-24T10:37:27;209;209;
44674;PMS5003;30388;52.038;-1.478;2022-12-24T10:39:55;202;200;
44674;PMS5003;30388;52.038;-1.478;2022-12-24T10:42:25;199;197;
44674;PMS5003;30388;52.038;-1.478;2022-12-24T10:45:00;212;212;
44674;PMS5003;30388;52.038;-1.478;2022-12-24T10:47:30;197;195;
44674;PMS5003;30388;52.038;-1.478;2022-12-24T10:50:00;197;195;
44674;PMS5003;30388;52.038;-1.478;2022-12-24T10:52:32;209;208;
44674;PMS5003;30388;52.038;-1.478;2022-12-24T10:55:04;184;183;
44674;PMS5003;30388;52.038;-1.478;2022-12-24T10:57:34;173;173;
44674;PMS5003;30388;52.038;-1.478;2022-12-24T11:00:03;175;174;
44674;PMS5003;30388;52.038;-1.478;2022-12-24T11:02:32;184;182;
44674;PMS5003;30388;52.038;-1.478;2022-12-24T11:05:02;134;134;
44674;PMS5003;30388;52.038;-1.478;2022-12-24T11:07:32;45;45;
44674;PMS5003;30388;52.038;-1.478;2022-12-24T11:10:01;76;76;
44674;PMS5003;30388;52.038;-1.478;2022-12-24T11:12:31;34;34;
44674;PMS5003;30388;52.038;-1.478;2022-12-24T11:15:01;27;27;
44674;PMS5003;30388;52.038;-1.478;2022-12-24T11:17:32;28;28;
44674;PMS5003;30388;52.038;-1.478;2022-12-24T11:19:59;21;21;
44674;PMS5003;30388;52.038;-1.478;2022-12-24T11:22:28;11;11;
44674;PMS5003;30388;52.038;-1.478;2022-12-24T11:25:00;90;85;
44674;PMS5003;30388;52.038;-1.478;2022-12-24T11:27:37;97;97;
44674;PMS5003;30388;52.038;-1.478;2022-12-24T11:30:24;88;88;
44674;PMS5003;30388;52.038;-1.478;2022-12-24T11:33:27;148;148;
44674;PMS5003;30388;52.038;-1.478;2022-12-24T11:35:58;170;170;
44674;PMS5003;30388;52.038;-1.478;2022-12-24T11:38:29;131;131;
44674;PMS5003;30388;52.038;-1.478;2022-12-24T11:40:59;46;46;
44674;PMS5003;30388;52.038;-1.478;2022-12-24T11:43:34;21;21;
44674;PMS5003;30388;52.038;-1.478;2022-12-24T11:46:11;7;7;
44674;PMS5003;30388;52.038;-1.478;2022-12-24T11:48:40;25;18;
44674;PMS5003;30388;52.038;-1.478;2022-12-24T11:51:18;26;26;
44674;PMS5003;30388;52.038;-1.478;2022-12-24T11:53:48;30;27;
44674;PMS5003;30388;52.038;-1.478;2022-12-24T11:56:26;51;49;
44674;PMS5003;30388;52.038;-1.478;2022-12-24T11:58:59;9;9;
44674;PMS5003;30388;52.038;-1.478;2022-12-24T12:01:37;12;11;
44674;PMS5003;30388;52.038;-1.478;2022-12-24T12:04:14;9;9;
44674;PMS5003;30388;52.038;-1.478;2022-12-24T12:06:45;4;4;
44674;PMS5003;30388;52.038;-1.478;2022-12-24T12:09:17;3;3;
44674;PMS5003;30388;52.038;-1.478;2022-12-24T12:11:49;5;5;
44674;PMS5003;30388;52.038;-1.478;2022-12-24T12:14:23;4;4;
44674;PMS5003;30388;52.038;-1.478;2022-12-24T12:16:56;4;2;
44674;PMS5003;30388;52.038;-1.478;2022-12-24T12:19:30;3;3;
44674;PMS5003;30388;52.038;-1.478;2022-12-24T12:22:03;6;5;
44674;PMS5003;30388;52.038;-1.478;2022-12-24T12:24:37;6;6;
44674;PMS5003;30388;52.038;-1.478;2022-12-24T12:27:15;5;5;
44674;PMS5003;30388;52.038;-1.478;2022-12-24T12:29:53;8;8;
44674;PMS5003;30388;52.038;-1.478;2022-12-24T12:32:26;3;3;
44674;PMS5003;30388;52.038;-1.478;2022-12-24T12:35:04;4;2;
44674;PMS5003;30388;52.038;-1.478;2022-12-24T12:37:40;3;3;
44674;PMS5003;30388;52.038;-1.478;2022-12-24T12:40:11;9;7;
44674;PMS5003;30388;52.038;-1.478;2022-12-24T12:42:40;3;3;
44674;PMS5003;30388;52.038;-1.478;2022-12-24T12:45:19;7;6;
44674;PMS5003;30388;52.038;-1.478;2022-12-24T12:48:02;7;4;
44674;PMS5003;30388;52.038;-1.478;2022-12-24T12:50:39;2;2;
44674;PMS5003;30388;52.038;-1.478;2022-12-24T12:53:29;2;2;
44674;PMS5003;30388;52.038;-1.478;2022-12-24T12:56:13;5;5;
44674;PMS5003;30388;52.038;-1.478;2022-12-24T12:58:48;1;1;
44674;PMS5003;30388;52.038;-1.478;2022-12-24T13:01:19;1;1;
44674;PMS5003;30388;52.038;-1.478;2022-12-24T13:03:58;3;3;
44674;PMS5003;30388;52.038;-1.478;2022-12-24T13:06:49;1;1;
44674;PMS5003;30388;52.038;-1.478;2022-12-24T13:09:34;5;5;
44674;PMS5003;30388;52.038;-1.478;2022-12-24T13:12:17;9;7;
44674;PMS5003;30388;52.038;-1.478;2022-12-24T13:17:18;7;7;
44674;PMS5003;30388;52.038;-1.478;2022-12-24T13:20:03;9;9;
44674;PMS5003;30388;52.038;-1.478;2022-12-24T13:22:47;24;24;
44674;PMS5003;30388;52.038;-1.478;2022-12-24T13:25:19;13;13;
44674;PMS5003;30388;52.038;-1.478;2022-12-24T13:27:49;19;19;
44674;PMS5003;30388;52.038;-1.478;2022-12-24T13:30:50;7;7;
44674;PMS5003;30388;52.038;-1.478;2022-12-24T13:33:45;9;7;
44674;PMS5003;30388;52.038;-1.478;2022-12-24T13:36:13;7;7;
44674;PMS5003;30388;52.038;-1.478;2022-12-24T13:38:42;16;16;
44674;PMS5003;30388;52.038;-1.478;2022-12-24T13:41:49;13;12;
44674;PMS5003;30388;52.038;-1.478;2022-12-24T13:44:23;52;50;
44674;PMS5003;30388;52.038;-1.478;2022-12-24T13:46:54;42;42;
44674;PMS5003;30388;52.038;-1.478;2022-12-24T13:49:28;24;24;
44674;PMS5003;30388;52.038;-1.478;2022-12-24T13:52:06;39;38;
44674;PMS5003;30388;52.038;-1.478;2022-12-24T13:54:40;34;34;
44674;PMS5003;30388;52.038;-1.478;2022-12-24T13:57:30;17;17;
44674;PMS5003;30388;52.038;-1.478;2022-12-24T14:00:03;31;31;
44674;PMS5003;30388;52.038;-1.478;2022-12-24T14:02:35;28;27;
44674;PMS5003;30388;52.038;-1.478;2022-12-24T14:05:07;37;33;
44674;PMS5003;30388;52.038;-1.478;2022-12-24T14:07:45;48;48;
44674;PMS5003;30388;52.038;-1.478;2022-12-24T14:10:19;23;22;
44674;PMS5003;30388;52.038;-1.478;2022-12-24T14:12:50;42;41;
44674;PMS5003;30388;52.038;-1.478;2022-12-24T14:16:07;38;38;
44674;PMS5003;30388;52.038;-1.478;2022-12-24T14:18:38;58;57;
44674;PMS5003;30388;52.038;-1.478;2022-12-24T14:21:13;25;25;
44674;PMS5003;30388;52.038;-1.478;2022-12-24T14:23:46;27;26;
44674;PMS5003;30388;52.038;-1.478;2022-12-24T14:26:19;40;40;
44674;PMS5003;30388;52.038;-1.478;2022-12-24T14:28:51;51;51;
44674;PMS5003;30388;52.038;-1.478;2022-12-24T14:31:21;33;30;
44674;PMS5003;30388;52.038;-1.478;2022-12-24T14:33:49;39;37;
44674;PMS5003;30388;52.038;-1.478;2022-12-24T14:36:18;19;17;
44674;PMS5003;30388;52.038;-1.478;2022-12-24T14:38:47;28;28;
44674;PMS5003;30388;52.038;-1.478;2022-12-24T14:41:24;26;26;
44674;PMS5003;30388;52.038;-1.478;2022-12-24T14:44:02;54;54;
44674;PMS5003;30388;52.038;-1.478;2022-12-24T14:46:38;22;21;
44674;PMS5003;30388;52.038;-1.478;2022-12-24T14:49:13;18;18;
44674;PMS5003;30388;52.038;-1.478;2022-12-24T14:51:51;23;23;
44674;PMS5003;30388;52.038;-1.478;2022-12-24T14:54:30;20;12;
44674;PMS5003;30388;52.038;-1.478;2022-12-24T14:57:31;19;19;
44674;PMS5003;30388;52.038;-1.478;2022-12-24T14:59:59;32;32;
44674;PMS5003;30388;52.038;-1.478;2022-12-24T15:02:36;17;17;
44674;PMS5003;30388;52.038;-1.478;2022-12-24T15:05:09;41;40;
44674;PMS5003;30388;52.038;-1.478;2022-12-24T15:07:39;28;28;
44674;PMS5003;30388;52.038;-1.478;2022-12-24T15:10:42;34;34;
44674;PMS5003;30388;52.038;-1.478;2022-12-24T15:13:19;23;21;
44674;PMS5003;30388;52.038;-1.478;2022-12-24T15:15:51;16;16;
44674;PMS5003;30388;52.038;-1.478;2022-12-24T15:18:21;26;26;
44674;PMS5003;30388;52.038;-1.478;2022-12-24T15:20:51;33;31;
44674;PMS5003;30388;52.038;-1.478;2022-12-24T15:23:26;31;31;
44674;PMS5003;30388;52.038;-1.478;2022-12-24T15:26:27;7;7;
44674;PMS5003;30388;52.038;-1.478;2022-12-24T15:28:56;5;5;
44674;PMS5003;30388;52.038;-1.478;2022-12-24T15:31:26;30;30;
44674;PMS5003;30388;52.038;-1.478;2022-12-24T15:33:55;26;25;
44674;PMS5003;30388;52.038;-1.478;2022-12-24T15:36:25;51;50;
44674;PMS5003;30388;52.038;-1.478;2022-12-24T15:38:55;18;14;
44674;PMS5003;30388;52.038;-1.478;2022-12-24T15:41:25;5;5;
44674;PMS5003;30388;52.038;-1.478;2022-12-24T15:43:58;3;3;
44674;PMS5003;30388;52.038;-1.478;2022-12-24T15:46:28;5;5;
44674;PMS5003;30388;52.038;-1.478;2022-12-24T15:48:57;8;6;
44674;PMS5003;30388;52.038;-1.478;2022-12-24T15:51:28;12;8;
44674;PMS5003;30388;52.038;-1.478;2022-12-24T15:54:00;8;6;
44674;PMS5003;30388;52.038;-1.478;2022-12-24T15:56:32;6;6;
44674;PMS5003;30388;52.038;-1.478;2022-12-24T15:59:34;5;5;
44674;PMS5003;30388;52.038;-1.478;2022-12-24T16:02:21;8;8;
44674;PMS5003;30388;52.038;-1.478;2022-12-24T16:05:32;8;6;
44674;PMS5003;30388;52.038;-1.478;2022-12-24T16:08:03;8;8;
44674;PMS5003;30388;52.038;-1.478;2022-12-24T16:10:33;5;5;
44674;PMS5003;30388;52.038;-1.478;2022-12-24T16:13:01;5;5;
44674;PMS5003;30388;52.038;-1.478;2022-12-24T16:15:28;5;5;
44674;PMS5003;30388;52.038;-1.478;2022-12-24T16:17:55;5;5;
44674;PMS5003;30388;52.038;-1.478;2022-12-24T16:20:22;5;5;
44674;PMS5003;30388;52.038;-1.478;2022-12-24T16:22:49;6;5;
44674;PMS5003;30388;52.038;-1.478;2022-12-24T16:25:21;7;7;
44674;PMS5003;30388;52.038;-1.478;2022-12-24T16:27:49;4;2;
44674;PMS5003;30388;52.038;-1.478;2022-12-24T16:30:16;7;6;
44674;PMS5003;30388;52.038;-1.478;2022-12-24T16:32:45;6;6;
44674;PMS5003;30388;52.038;-1.478;2022-12-24T16:35:18;4;4;